Terminal Aerodrome Forecast
Issued by NWS Northern Indiana

Home | Current Version | Previous Version | Graphics & Text | Print | Product List | Glossary On
Versions: 1 2 3 4 5 6 7 8 9 10 11 12 13 14 15
000
FTUS43 KIWX 220539
TAFFWA
TAF
KFWA 220539Z 2206/2306 16005KT P6SM VCTS SCT060CB OVC180
      TEMPO 2206/2207 24020G30KT 2SM +TSRA BR BKN035CB
     FM220900 21008KT 6SM -TSRA BKN050CB
      TEMPO 2209/2212 2SM TSRA BR OVC025CB
     FM221400 22010KT P6SM BKN040=

USA.gov is the U.S. government's official web portal to all federal, state and local government web resources and services.